Time;durP1;ratioP1;P1;durP2;ratioP2;P2;SDS_P1;SDS_P2;PMS_P1;PMS_P2;Temp;Humidity;BMP_temperature;BMP_pressure;BME280_temperature;BME280_humidity;BME280_pressure;Samples;Min_cycle;Max_cycle;Signal;HPM_P1;HPM_P2
2023/03/11 00:02:53;;;;;;;3.97;3.67;;;;;;;21.69;38.37;93230.66;6125665;28;109104;-60
2023/03/11 00:06:01;;;;;;;4.30;4.00;;;;;;;21.58;38.27;93218.97;6133625;28;109065;-60
2023/03/11 00:09:04;;;;;;;3.80;3.50;;;;;;;21.66;38.36;93248.06;6134514;28;109144;-61
2023/03/11 00:12:08;;;;;;;4.07;3.77;;;;;;;21.67;38.00;93265.56;6125060;28;109231;-61
2023/03/11 00:15:12;;;;;;;4.07;3.77;;;;;;;21.67;37.90;93264.78;6110626;28;110055;-61
2023/03/11 00:18:15;;;;;;;4.30;4.00;;;;;;;21.67;38.14;93248.81;6126125;28;109370;-62
2023/03/11 00:21:20;;;;;;;4.10;3.80;;;;;;;21.67;38.58;93243.50;6122300;28;108853;-60
2023/03/11 00:24:23;;;;;;;5.23;4.73;;;;;;;21.66;38.26;93253.38;6145081;28;109355;-60
2023/03/11 00:27:26;;;;;;;4.47;4.10;;;;;;;21.65;38.28;93246.50;6113052;28;110682;-60
2023/03/11 00:30:30;;;;;;;5.00;4.60;;;;;;;21.66;38.31;93253.38;6126866;28;109346;-61
2023/03/11 00:33:33;;;;;;;5.17;4.80;;;;;;;21.64;38.53;93249.53;6137397;28;109131;-60
2023/03/11 00:36:38;;;;;;;4.93;4.53;;;;;;;21.64;38.52;93236.22;6129607;28;109246;-61
2023/03/11 00:39:41;;;;;;;4.53;4.23;;;;;;;21.65;38.09;93229.78;6136213;28;109422;-61
2023/03/11 00:42:44;;;;;;;4.90;4.50;;;;;;;21.65;37.98;93233.19;6120819;28;110187;-61
2023/03/11 00:45:47;;;;;;;4.00;3.70;;;;;;;21.65;38.58;93241.19;6129410;28;110266;-61
2023/03/11 00:48:51;;;;;;;3.67;3.30;;;;;;;21.63;38.39;93250.66;6109969;28;109142;-61
2023/03/11 00:51:56;;;;;;;4.50;4.20;;;;;;;21.64;38.37;93249.53;6130472;28;110216;-61
2023/03/11 00:54:59;;;;;;;4.80;4.40;;;;;;;21.62;38.37;93233.13;6132614;28;110795;-61
2023/03/11 00:58:07;;;;;;;4.23;3.93;;;;;;;21.61;38.20;93223.59;6119979;28;109096;-61
2023/03/11 01:01:11;;;;;;;5.37;4.97;;;;;;;21.61;38.53;93212.97;6115721;28;111578;-62
2023/03/11 01:04:15;;;;;;;5.40;4.90;;;;;;;21.61;38.39;93207.63;6116588;28;110191;-62
2023/03/11 01:07:20;;;;;;;5.93;5.43;;;;;;;21.61;38.66;93196.97;6139590;28;109027;-62
2023/03/11 01:10:23;;;;;;;7.00;6.40;;;;;;;21.61;38.25;93199.66;6134325;28;109652;-62
2023/03/11 01:13:29;;;;;;;5.93;5.50;;;;;;;21.61;38.29;93192.44;6133279;28;110145;-62
2023/03/11 01:16:32;;;;;;;5.53;5.07;;;;;;;21.60;38.21;93179.47;6138910;28;110282;-62
2023/03/11 01:19:35;;;;;;;9.67;8.77;;;;;;;21.61;38.11;93189.78;6121432;28;109410;-62
2023/03/11 01:22:39;;;;;;;6.60;6.10;;;;;;;21.60;38.22;93185.56;6114534;28;110580;-62
2023/03/11 01:25:43;;;;;;;9.97;9.07;;;;;;;21.61;38.30;93181.78;6139238;28;110309;-62
2023/03/11 01:28:46;;;;;;;8.97;8.27;;;;;;;21.62;38.13;93171.91;6145526;28;109563;-63
2023/03/11 01:31:49;;;;;;;10.77;9.73;;;;;;;21.61;38.16;93170.38;6139245;28;109402;-62
2023/03/11 01:34:52;;;;;;;16.20;14.80;;;;;;;21.61;37.91;93157.06;6123567;28;111563;-62
2023/03/11 01:37:57;;;;;;;21.10;19.30;;;;;;;21.54;37.89;93149.72;6126823;28;109267;-62
2023/03/11 01:41:01;;;;;;;16.87;15.47;;;;;;;21.46;38.30;93116.06;6129534;28;110115;-62
2023/03/11 01:44:05;;;;;;;25.20;23.00;;;;;;;21.61;37.88;93114.47;6123826;28;109193;-62
2023/03/11 01:47:34;;;;;;;26.07;23.80;;;;;;;21.60;38.26;93113.72;6105032;28;109194;-61
2023/03/11 01:50:41;;;;;;;17.47;15.97;;;;;;;21.54;38.08;93101.03;6147577;28;109307;-61
2023/03/11 01:53:46;;;;;;;20.40;18.70;;;;;;;21.61;38.04;93106.50;6139685;28;109150;-62
2023/03/11 01:56:50;;;;;;;20.27;18.47;;;;;;;21.61;38.21;93109.91;6116886;28;109084;-62
2023/03/11 01:59:57;;;;;;;31.87;29.10;;;;;;;21.59;38.21;93119.38;6134764;28;109312;-62
2023/03/11 02:03:07;;;;;;;32.73;29.80;;;;;;;21.53;37.92;93113.56;6134409;28;110253;-62
2023/03/11 02:06:14;;;;;;;24.87;22.70;;;;;;;21.58;38.27;93139.91;6141109;28;110145;-62
2023/03/11 02:09:19;;;;;;;23.37;21.27;;;;;;;21.54;37.90;93149.72;6149133;28;109941;-62
2023/03/11 02:12:23;;;;;;;18.97;17.30;;;;;;;21.60;37.85;93168.81;6137974;28;109031;-62
2023/03/11 02:15:26;;;;;;;15.43;14.23;;;;;;;21.59;38.21;93161.97;6136762;28;109390;-62
2023/03/11 02:18:30;;;;;;;20.67;18.77;;;;;;;21.58;38.04;93153.22;6141868;28;109090;-62
2023/03/11 02:21:34;;;;;;;27.60;25.30;;;;;;;21.58;38.27;93169.19;6126038;28;110284;-62
2023/03/11 02:24:45;;;;;;;23.93;21.93;;;;;;;21.57;38.05;93180.19;6124947;28;109070;-62
2023/03/11 02:27:53;;;;;;;24.90;22.70;;;;;;;21.59;38.09;93193.91;6138367;28;109116;-62
2023/03/11 02:30:57;;;;;;;22.93;21.00;;;;;;;21.56;38.02;93175.97;6117406;28;109341;-62
2023/03/11 02:34:02;;;;;;;21.77;19.77;;;;;;;21.56;38.14;93179.41;6119197;28;109126;-61
2023/03/11 02:37:07;;;;;;;23.60;21.50;;;;;;;21.56;37.85;93184.72;6136683;28;110352;-62
2023/03/11 02:40:35;;;;;;;28.57;26.10;;;;;;;21.57;38.04;93180.19;6142473;28;110095;-62
2023/03/11 02:43:43;;;;;;;23.97;21.87;;;;;;;21.56;38.16;93181.28;6123589;28;109322;-62
2023/03/11 02:46:46;;;;;;;27.77;25.37;;;;;;;21.56;37.93;93184.72;6136998;28;110744;-62
2023/03/11 02:49:50;;;;;;;27.90;25.43;;;;;;;21.55;37.91;93182.41;6136692;28;108887;-61
2023/03/11 02:52:53;;;;;;;22.83;20.93;;;;;;;21.56;38.15;93205.25;6119585;28;110059;-61
2023/03/11 02:55:56;;;;;;;26.77;24.50;;;;;;;21.55;38.00;93206.38;6117518;28;109125;-61
2023/03/11 02:59:01;;;;;;;23.53;21.50;;;;;;;21.50;37.80;93196.75;6113116;28;109074;-61
2023/03/11 03:02:13;;;;;;;21.10;19.23;;;;;;;21.53;38.19;93201.41;6130615;28;109018;-62
2023/03/11 03:05:16;;;;;;;19.70;18.00;;;;;;;21.55;38.26;93201.03;6120995;28;110295;-62
2023/03/11 03:08:19;;;;;;;20.90;19.23;;;;;;;21.54;37.70;93194.19;6134319;28;109589;-62
2023/03/11 03:11:22;;;;;;;21.50;19.70;;;;;;;21.54;37.81;93202.94;6137050;28;109169;-62
2023/03/11 03:14:27;;;;;;;21.23;19.43;;;;;;;21.54;37.87;93202.16;6114974;28;109640;-62
2023/03/11 03:17:30;;;;;;;21.03;19.23;;;;;;;21.53;37.82;93201.41;6102288;28;110021;-62
2023/03/11 03:20:33;;;;;;;20.97;19.20;;;;;;;21.53;38.09;93196.06;6118082;28;109014;-62
2023/03/11 03:23:36;;;;;;;19.30;17.60;;;;;;;21.49;37.71;93179.22;6112658;28;109239;-62
2023/03/11 03:26:40;;;;;;;18.87;17.27;;;;;;;21.53;37.58;93188.09;6107815;28;108829;-61
2023/03/11 03:29:44;;;;;;;21.40;19.60;;;;;;;21.51;37.54;93188.44;6122009;28;109257;-59
2023/03/11 03:32:47;;;;;;;20.07;18.37;;;;;;;21.53;37.84;93188.09;6142343;28;110099;-60
2023/03/11 03:35:51;;;;;;;19.00;17.43;;;;;;;21.54;37.59;93191.53;6136074;28;109168;-60
2023/03/11 03:38:55;;;;;;;18.70;17.10;;;;;;;21.54;37.36;93191.53;6108052;28;110129;-59
2023/03/11 03:41:58;;;;;;;17.73;16.23;;;;;;;21.55;37.51;93193.06;6123342;28;111735;-59
2023/03/11 03:45:03;;;;;;;18.47;16.90;;;;;;;21.55;37.87;93187.75;6147008;28;110477;-60
2023/03/11 03:48:07;;;;;;;17.73;16.13;;;;;;;21.55;37.92;93180.53;6136446;28;110110;-60
2023/03/11 03:51:13;;;;;;;16.80;15.40;;;;;;;21.56;37.53;93189.28;6117955;28;109415;-61
2023/03/11 03:54:16;;;;;;;17.90;16.50;;;;;;;21.55;37.94;93177.88;6114846;28;109427;-61
2023/03/11 03:57:19;;;;;;;16.63;15.33;;;;;;;21.47;37.43;93158.28;6118971;28;109281;-60
2023/03/11 04:00:24;;;;;;;17.53;16.03;;;;;;;21.52;37.95;93184.66;6139986;28;108904;-60
2023/03/11 04:03:28;;;;;;;18.07;16.53;;;;;;;21.54;37.25;93186.97;6113814;28;109679;-60
2023/03/11 04:06:31;;;;;;;16.50;15.10;;;;;;;21.54;37.55;93175.56;6123523;28;109034;-59
2023/03/11 04:09:35;;;;;;;15.80;14.40;;;;;;;21.54;37.42;93191.53;6144403;28;109644;-60
2023/03/11 04:12:38;;;;;;;15.77;14.37;;;;;;;21.54;37.50;93186.19;6138823;28;109750;-60
2023/03/11 04:15:43;;;;;;;16.67;15.13;;;;;;;21.52;37.89;93176.66;6143432;28;109454;-60
2023/03/11 04:18:47;;;;;;;14.73;13.50;;;;;;;21.51;37.71;93188.44;6131287;28;109180;-60
2023/03/11 04:21:51;;;;;;;15.60;14.30;;;;;;;21.54;37.23;93188.84;6148695;28;108820;-60
2023/03/11 04:24:54;;;;;;;14.03;12.93;;;;;;;21.51;37.66;93188.44;6127370;28;110314;-60
2023/03/11 04:27:57;;;;;;;13.60;12.50;;;;;;;21.53;37.63;93193.41;6139983;28;110202;-60
2023/03/11 04:31:02;;;;;;;14.43;13.13;;;;;;;21.45;37.68;93189.81;6142611;28;109543;-60
2023/03/11 04:34:05;;;;;;;14.10;13.00;;;;;;;21.52;37.37;93202.50;6151732;28;109088;-60
2023/03/11 04:37:08;;;;;;;13.97;12.77;;;;;;;21.52;37.16;93199.84;6128814;28;110219;-60
2023/03/11 04:40:12;;;;;;;12.73;11.63;;;;;;;21.53;37.48;93196.06;6138758;28;110109;-61
2023/03/11 04:43:15;;;;;;;13.00;12.00;;;;;;;21.52;37.36;93189.97;6139343;28;109877;-60
2023/03/11 04:46:20;;;;;;;13.50;12.40;;;;;;;21.50;37.10;93176.22;6129579;28;110097;-60
2023/03/11 04:49:23;;;;;;;13.07;11.97;;;;;;;21.51;37.21;93183.13;6120782;28;109993;-61
2023/03/11 04:52:26;;;;;;;11.90;10.90;;;;;;;21.51;37.38;93171.69;6115470;28;109107;-61
2023/03/11 04:55:29;;;;;;;12.27;11.27;;;;;;;21.51;37.33;93185.78;6133642;28;109352;-61
2023/03/11 04:58:33;;;;;;;12.30;11.30;;;;;;;21.51;37.48;93185.78;6123229;28;109647;-61
2023/03/11 05:01:37;;;;;;;13.17;12.07;;;;;;;21.50;37.56;93178.13;6132881;28;109214;-61
2023/03/11 05:04:40;;;;;;;12.03;11.03;;;;;;;21.52;37.06;93200.63;6125059;28;109077;-59
2023/03/11 05:07:43;;;;;;;12.40;11.40;;;;;;;21.50;37.74;93202.84;6135324;28;109575;-60
2023/03/11 05:10:47;;;;;;;11.10;10.20;;;;;;;21.52;37.44;93205.94;6147432;28;109339;-60
2023/03/11 05:13:50;;;;;;;11.37;10.40;;;;;;;21.52;37.24;93203.28;6136934;28;109701;-60
2023/03/11 05:16:54;;;;;;;12.13;11.13;;;;;;;21.52;37.03;93216.59;6138788;28;109239;-60
2023/03/11 05:19:58;;;;;;;11.87;10.80;;;;;;;21.52;37.22;93207.84;6134360;28;111004;-60
2023/03/11 05:23:01;;;;;;;12.57;11.47;;;;;;;21.43;37.36;93209.91;6124657;28;110376;-60
2023/03/11 05:26:04;;;;;;;11.67;10.67;;;;;;;21.52;37.42;93224.56;6134943;28;110678;-60
2023/03/11 05:29:07;;;;;;;10.73;9.83;;;;;;;21.52;36.99;93232.56;6121309;28;109244;-60
2023/03/11 05:32:13;;;;;;;12.37;11.37;;;;;;;21.54;37.19;93226.13;6118906;28;110112;-60
2023/03/11 05:35:16;;;;;;;10.83;10.03;;;;;;;21.51;36.92;93235.56;6133950;28;109530;-60
2023/03/11 05:38:19;;;;;;;10.20;9.40;;;;;;;21.51;37.05;93240.88;6139011;28;109317;-60
2023/03/11 05:41:22;;;;;;;10.33;9.53;;;;;;;21.51;37.09;93232.91;6116099;28;109220;-60
2023/03/11 05:44:26;;;;;;;10.37;9.47;;;;;;;21.52;37.26;93248.53;6107149;28;110290;-61
2023/03/11 05:47:30;;;;;;;9.93;9.13;;;;;;;21.52;37.16;93243.22;6116658;28;109225;-60
2023/03/11 05:50:33;;;;;;;10.63;9.73;;;;;;;21.47;36.92;93246.09;6126392;28;109157;-59
2023/03/11 05:53:37;;;;;;;9.73;9.03;;;;;;;21.51;37.08;93257.63;6123521;28;110132;-59
2023/03/11 05:56:40;;;;;;;9.80;9.00;;;;;;;21.50;37.29;93264.03;6111530;28;109508;-60
2023/03/11 05:59:43;;;;;;;11.30;10.30;;;;;;;21.49;37.44;93275.81;6125384;28;109252;-61
2023/03/11 06:02:48;;;;;;;14.10;12.90;;;;;;;21.59;37.53;93284.41;6129209;28;109411;-59
2023/03/11 06:05:52;;;;;;;16.13;14.73;;;;;;;21.59;37.34;93284.41;6142357;28;110887;-60
2023/03/11 06:08:55;;;;;;;12.10;11.10;;;;;;;21.56;37.60;93287.75;6128718;28;110985;-59
2023/03/11 06:11:58;;;;;;;11.83;10.83;;;;;;;21.56;37.29;93283.19;6130370;28;109276;-60
2023/03/11 06:15:01;;;;;;;12.57;11.40;;;;;;;21.55;37.41;93283.56;6162368;28;109281;-59
2023/03/11 06:18:06;;;;;;;12.53;11.30;;;;;;;21.55;37.50;93280.88;6120116;28;109234;-59
2023/03/11 06:21:15;;;;;;;11.67;10.73;;;;;;;21.52;37.51;93288.44;6157738;28;110115;-62
2023/03/11 06:24:19;;;;;;;13.90;12.70;;;;;;;21.48;37.60;93289.47;6126978;28;108955;-62
2023/03/11 06:27:22;;;;;;;9.10;8.20;;;;;;;21.31;37.62;93279.16;6138001;28;109090;-59
2023/03/11 06:30:25;;;;;;;7.90;6.90;;;;;;;21.34;37.63;93292.56;6127107;28;109361;-60
2023/03/11 06:33:30;;;;;;;6.50;6.00;;;;;;;21.32;37.78;93291.34;6138500;28;109270;-59
2023/03/11 06:36:33;;;;;;;5.30;4.80;;;;;;;21.25;37.45;93289.31;6151625;28;109017;-59
2023/03/11 06:39:36;;;;;;;4.50;4.13;;;;;;;21.18;37.53;93284.59;6121490;28;110237;-60
2023/03/11 06:42:40;;;;;;;4.00;3.70;;;;;;;21.18;37.72;93289.13;6131790;28;110255;-60
2023/03/11 06:45:43;;;;;;;3.40;3.10;;;;;;;21.23;37.71;93283.56;6137666;28;109807;-59
2023/03/11 06:48:50;;;;;;;3.50;2.50;;;;;;;21.27;37.52;93287.06;6113714;28;111603;-60
2023/03/11 06:51:54;;;;;;;2.67;2.33;;;;;;;21.29;37.55;93281.41;6113910;28;109405;-60
2023/03/11 06:54:57;;;;;;;3.40;2.70;;;;;;;21.32;37.30;93281.47;6132862;28;110372;-61
2023/03/11 06:58:00;;;;;;;2.43;2.07;;;;;;;21.35;37.21;93280.03;6125498;28;110344;-61
2023/03/11 07:01:05;;;;;;;2.70;1.93;;;;;;;21.36;37.15;93282.34;6152082;28;109292;-61
2023/03/11 07:04:10;;;;;;;3.60;2.30;;;;;;;21.39;37.03;93288.88;6126753;28;109100;-60
2023/03/11 07:07:14;;;;;;;2.20;1.97;;;;;;;21.39;37.21;93287.00;6137618;28;109017;-61
2023/03/11 07:10:17;;;;;;;2.10;1.90;;;;;;;21.30;37.01;93267.75;6137430;28;110301;-59
2023/03/11 07:13:20;;;;;;;2.57;2.10;;;;;;;21.44;37.22;93294.69;6136416;28;109022;-59
2023/03/11 07:16:25;;;;;;;2.63;2.10;;;;;;;21.45;36.62;93288.25;6125984;28;110249;-61
2023/03/11 07:19:30;;;;;;;1.97;1.80;;;;;;;21.47;36.95;93280.72;6137268;28;109976;-60
2023/03/11 07:22:33;;;;;;;2.30;1.97;;;;;;;21.49;36.83;93283.78;6137070;28;109316;-60
2023/03/11 07:25:36;;;;;;;1.77;1.67;;;;;;;21.50;36.65;93281.91;6130763;28;110474;-62
2023/03/11 07:28:40;;;;;;;1.53;1.40;;;;;;;21.44;36.35;93264.66;6134185;28;109067;-60
2023/03/11 07:31:43;;;;;;;1.83;1.53;;;;;;;21.50;36.64;93261.38;6137078;28;109236;-60
2023/03/11 07:34:48;;;;;;;2.30;1.40;;;;;;;21.49;36.52;93254.53;6137000;28;109134;-60
2023/03/11 07:37:51;;;;;;;1.70;1.57;;;;;;;21.48;36.79;93255.63;6125001;28;109734;-61
2023/03/11 07:40:58;;;;;;;3.43;2.27;;;;;;;21.44;36.16;93241.47;6136667;28;109358;-61
2023/03/11 07:44:02;;;;;;;2.70;2.30;;;;;;;21.54;36.55;93258.06;6136054;28;109256;-60
2023/03/11 07:47:06;;;;;;;2.90;2.60;;;;;;;21.54;36.99;93240.19;6132734;28;109542;-62
2023/03/11 07:50:11;;;;;;;6.43;3.17;;;;;;;21.65;37.34;93232.44;6117389;28;109003;-62
2023/03/11 07:53:14;;;;;;;4.37;2.90;;;;;;;21.68;37.01;93237.09;6134202;28;109051;-62
2023/03/11 07:56:18;;;;;;;4.80;3.10;;;;;;;21.78;36.63;93231.22;6116799;28;110529;-62
2023/03/11 07:59:21;;;;;;;3.60;2.30;;;;;;;21.94;37.01;93221.31;6107858;28;109242;-61
2023/03/11 08:02:24;;;;;;;4.57;2.87;;;;;;;22.07;37.36;93214.75;6124613;28;109766;-62
2023/03/11 08:05:33;;;;;;;6.23;2.90;;;;;;;22.08;37.20;93210.94;6124873;28;110018;-63
2023/03/11 08:08:37;;;;;;;5.30;2.70;;;;;;;22.15;36.95;93220.19;6112711;28;109073;-63
2023/03/11 08:11:40;;;;;;;4.97;2.83;;;;;;;22.18;37.21;93211.50;6110997;28;109073;-63
2023/03/11 08:14:43;;;;;;;7.30;4.67;;;;;;;22.09;37.01;93201.84;6126385;28;109043;-62
2023/03/11 08:17:46;;;;;;;7.97;4.70;;;;;;;22.20;37.21;93198.63;6123602;28;109244;-63
2023/03/11 08:20:51;;;;;;;6.03;3.70;;;;;;;22.36;37.03;93183.34;6128053;28;109656;-62
2023/03/11 08:23:57;;;;;;;9.83;4.70;;;;;;;22.41;37.23;93175.81;6113266;28;110575;-63
2023/03/11 08:27:00;;;;;;;6.10;3.20;;;;;;;22.51;37.61;93173.69;6136908;28;109043;-62
2023/03/11 08:30:04;;;;;;;4.57;3.53;;;;;;;22.48;36.98;93159.16;6139371;28;110242;-62
2023/03/11 08:33:07;;;;;;;4.60;3.80;;;;;;;22.58;37.84;93168.50;6129800;28;109236;-62
2023/03/11 08:36:12;;;;;;;5.70;3.40;;;;;;;22.53;37.84;93156.22;6146058;28;109272;-62
2023/03/11 08:39:15;;;;;;;7.20;3.30;;;;;;;22.45;37.56;93164.44;6133499;28;109152;-60
2023/03/11 08:42:19;;;;;;;9.70;4.00;;;;;;;22.51;38.41;93160.34;6133810;28;109965;-62
2023/03/11 08:45:23;;;;;;;10.40;3.80;;;;;;;22.60;37.85;93151.03;6109487;28;110475;-61
2023/03/11 08:48:26;;;;;;;9.73;3.90;;;;;;;22.58;38.79;93145.28;6118362;28;109265;-61
2023/03/11 08:51:32;;;;;;;5.43;2.70;;;;;;;22.73;37.87;93153.53;6134712;28;109307;-61
2023/03/11 08:54:35;;;;;;;14.87;3.40;;;;;;;22.74;37.83;93133.75;6132136;28;109078;-64
2023/03/11 08:57:39;;;;;;;6.80;3.50;;;;;;;22.83;37.80;93127.03;6127807;28;109657;-62
2023/03/11 09:00:42;;;;;;;10.70;4.10;;;;;;;22.43;36.26;93138.13;6128168;28;110417;-62
2023/03/11 09:03:45;;;;;;;9.33;4.00;;;;;;;22.43;36.70;93130.16;6138593;28;110237;-64
2023/03/11 09:06:51;;;;;;;4.67;3.03;;;;;;;22.45;36.63;93127.91;6130890;28;108828;-62
2023/03/11 09:09:54;;;;;;;4.87;2.63;;;;;;;22.61;36.88;93130.47;6127633;28;110599;-63
2023/03/11 09:12:57;;;;;;;7.30;2.67;;;;;;;22.84;38.72;93128.56;6121959;28;109274;-61
2023/03/11 09:16:01;;;;;;;7.30;2.97;;;;;;;22.93;39.35;93126.44;6116655;28;110060;-63
2023/03/11 09:19:06;;;;;;;5.23;3.20;;;;;;;22.78;39.18;93131.91;6144045;28;109052;-63
2023/03/11 09:22:10;;;;;;;7.70;3.50;;;;;;;22.70;38.95;93129.13;6123877;28;109056;-62
2023/03/11 09:25:14;;;;;;;6.43;3.10;;;;;;;22.61;39.11;93130.47;6116653;28;109079;-61
2023/03/11 09:28:17;;;;;;;5.53;3.50;;;;;;;22.50;38.39;93118.81;6115268;28;109662;-62
2023/03/11 09:31:20;;;;;;;5.87;3.20;;;;;;;22.46;38.09;93118.00;6109011;28;110227;-61
2023/03/11 09:34:23;;;;;;;2.70;2.50;;;;;;;22.41;37.79;93111.09;6129386;28;109069;-61
2023/03/11 09:37:29;;;;;;;7.00;2.60;;;;;;;22.38;37.54;93112.56;6131050;28;108855;-62
2023/03/11 09:40:46;;;;;;;4.63;2.40;;;;;;;22.43;37.55;93098.16;6130312;28;108893;-62
2023/03/11 09:44:05;;;;;;;6.23;2.30;;;;;;;22.51;37.65;93110.47;6130365;28;109529;-62
2023/03/11 09:47:35;;;;;;;2.47;1.97;;;;;;;22.54;37.11;93098.34;6142030;28;109312;-61
2023/03/11 09:50:46;;;;;;;3.43;2.17;;;;;;;22.56;37.48;93112.88;6133266;28;109150;-61
2023/03/11 09:53:58;;;;;;;5.70;2.43;;;;;;;22.58;37.65;93102.63;6126511;28;110180;-61
2023/03/11 09:57:03;;;;;;;6.20;2.83;;;;;;;22.59;37.70;93106.06;6133085;28;110535;-62
2023/03/11 10:00:08;;;;;;;3.37;2.57;;;;;;;22.59;37.46;93101.50;6141162;28;109575;-62
2023/03/11 10:03:25;;;;;;;4.70;3.50;;;;;;;22.60;37.69;93089.72;6136130;28;109013;-61
2023/03/11 10:06:30;;;;;;;5.70;3.10;;;;;;;22.66;37.85;93096.28;6127545;28;109414;-61
2023/03/11 10:09:38;;;;;;;5.10;3.67;;;;;;;22.73;38.01;93106.31;6137914;28;109105;-62
2023/03/11 10:12:52;;;;;;;6.33;4.50;;;;;;;22.77;37.62;93109.03;6146990;28;110048;-63
2023/03/11 10:16:05;;;;;;;10.90;9.90;;;;;;;22.74;37.55;93096.41;6133164;28;109319;-62
2023/03/11 10:19:15;;;;;;;86.40;78.90;;;;;;;22.70;38.13;93102.47;6132972;28;109050;-62
2023/03/11 10:22:27;;;;;;;101.80;92.90;;;;;;;22.90;37.85;93111.16;6135520;28;109264;-60
2023/03/11 10:25:40;;;;;;;74.43;68.07;;;;;;;22.61;33.89;93125.91;6138159;28;109634;-62
2023/03/11 10:28:46;;;;;;;42.57;39.03;;;;;;;22.33;32.41;93110.16;6126095;28;109404;-63
2023/03/11 10:31:54;;;;;;;8.20;7.40;;;;;;;21.99;31.18;93106.50;6119848;28;109477;-61
2023/03/11 10:35:04;;;;;;;11.23;8.13;;;;;;;22.09;32.61;93113.16;6146056;28;108943;-61
2023/03/11 10:38:15;;;;;;;12.07;11.00;;;;;;;22.26;32.07;93103.97;6139359;28;111841;-62
2023/03/11 10:41:24;;;;;;;10.37;9.33;;;;;;;22.50;32.81;93116.94;6140577;28;109052;-62
2023/03/11 10:44:32;;;;;;;10.53;9.53;;;;;;;22.58;32.79;93120.53;6136670;28;109310;-63
2023/03/11 10:47:35;;;;;;;10.10;9.30;;;;;;;22.62;33.53;93110.69;6122268;28;109430;-63
2023/03/11 10:50:45;;;;;;;15.13;8.53;;;;;;;22.51;33.54;93104.38;6125703;28;109436;-62
2023/03/11 10:53:50;;;;;;;7.23;6.63;;;;;;;22.56;33.26;93126.19;6136984;28;109552;-63
2023/03/11 10:57:00;;;;;;;8.10;7.40;;;;;;;22.58;33.36;93121.31;6146087;28;109907;-63
2023/03/11 11:00:11;;;;;;;8.03;7.33;;;;;;;22.62;33.35;93129.34;6137206;28;109608;-62
2023/03/11 11:03:21;;;;;;;7.03;6.43;;;;;;;22.62;33.88;93129.34;6119394;28;111371;-63
2023/03/11 11:06:28;;;;;;;8.80;8.00;;;;;;;22.59;34.42;93135.41;6137162;28;109519;-64
2023/03/11 11:09:32;;;;;;;15.40;13.77;;;;;;;22.54;37.84;93144.44;6138549;28;109082;-64
2023/03/11 11:12:36;;;;;;;13.63;12.20;;;;;;;22.62;38.75;93154.13;6144630;28;109286;-63
2023/03/11 11:15:42;;;;;;;16.20;12.80;;;;;;;22.60;38.56;93143.03;6131857;28;109139;-64
2023/03/11 11:18:48;;;;;;;15.70;10.03;;;;;;;22.65;37.79;93134.75;6136120;28;110164;-64
2023/03/11 11:21:52;;;;;;;12.23;10.30;;;;;;;22.62;38.26;93132.03;6147234;28;109876;-62
2023/03/11 11:24:57;;;;;;;13.50;12.07;;;;;;;22.55;38.83;93122.00;6142131;28;110152;-64
2023/03/11 11:28:14;;;;;;;15.00;13.37;;;;;;;22.52;39.44;93121.94;6128650;28;109019;-63
2023/03/11 11:31:24;;;;;;;13.50;12.30;;;;;;;22.44;39.25;93110.38;6117955;28;109252;-63
2023/03/11 11:34:31;;;;;;;13.60;12.20;;;;;;;22.48;39.29;93099.75;6129649;28;109127;-63
2023/03/11 11:37:36;;;;;;;10.63;9.80;;;;;;;22.47;38.65;93108.88;6112512;28;109237;-63
2023/03/11 11:40:40;;;;;;;9.47;8.50;;;;;;;22.39;38.71;93102.66;6129876;28;109048;-65
2023/03/11 11:43:49;;;;;;;8.80;8.00;;;;;;;22.40;38.20;93099.66;6122601;28;109054;-64
2023/03/11 11:46:57;;;;;;;8.80;6.73;;;;;;;22.36;37.98;93084.72;6125432;28;109282;-63
2023/03/11 11:50:03;;;;;;;6.47;5.87;;;;;;;22.27;38.44;93078.84;6124853;28;110131;-64
2023/03/11 11:53:23;;;;;;;6.13;5.53;;;;;;;22.30;38.37;93078.13;6124454;28;109500;-63
2023/03/11 11:56:27;;;;;;;5.23;4.20;;;;;;;22.30;38.02;93064.81;6128837;28;109269;-64
2023/03/11 11:59:31;;;;;;;5.40;4.37;;;;;;;22.31;37.50;93064.47;6135146;28;109159;-64
2023/03/11 12:02:49;;;;;;;4.33;3.93;;;;;;;22.37;36.31;93056.97;6133398;28;109154;-64
2023/03/11 12:05:57;;;;;;;4.40;4.00;;;;;;;22.38;36.61;93047.84;6134799;28;110047;-63
2023/03/11 12:09:13;;;;;;;4.70;4.27;;;;;;;22.56;36.63;93067.53;6130469;28;109233;-62
2023/03/11 12:12:26;;;;;;;5.90;3.90;;;;;;;22.58;36.68;93060.00;6129459;28;110013;-63
2023/03/11 12:15:39;;;;;;;5.60;3.80;;;;;;;22.62;36.80;93058.16;6133995;28;110295;-59
2023/03/11 12:18:50;;;;;;;5.13;3.57;;;;;;;22.60;37.05;93049.75;6135045;28;111008;-60
2023/03/11 12:22:44;;;;;;;3.60;3.30;;;;;;;22.64;36.42;93066.56;6118030;28;109916;-60
2023/03/11 12:26:22;;;;;;;4.17;3.53;;;;;;;22.62;36.14;93042.16;6138920;28;109547;-59
2023/03/11 12:29:32;;;;;;;5.60;3.73;;;;;;;22.57;35.96;93045.13;6067707;28;110195;-59
2023/03/11 12:32:44;;;;;;;3.83;3.50;;;;;;;22.52;36.29;93037.41;6073315;28;109634;-59
2023/03/11 12:35:53;;;;;;;4.17;3.77;;;;;;;22.57;35.67;93049.69;6142412;28;110918;-60
2023/03/11 12:38:57;;;;;;;5.00;4.53;;;;;;;22.54;35.78;93056.47;6140066;28;109178;-60
2023/03/11 12:42:19;;;;;;;5.20;4.70;;;;;;;22.55;35.73;93051.91;6138695;28;109416;-60
2023/03/11 12:45:48;;;;;;;7.27;4.70;;;;;;;22.59;35.02;93058.84;6135211;28;109080;-60
2023/03/11 12:49:12;;;;;;;5.10;4.60;;;;;;;22.55;34.39;93066.00;6149350;28;109072;-60
2023/03/11 12:52:52;;;;;;;3.90;3.60;;;;;;;22.52;34.14;93068.63;6146816;28;110751;-60
2023/03/11 12:56:08;;;;;;;3.70;3.40;;;;;;;22.56;34.38;93067.53;6139779;28;110501;-59
2023/03/11 12:59:37;;;;;;;3.53;3.17;;;;;;;22.50;33.64;93063.63;6142460;28;109137;-59
2023/03/11 13:03:10;;;;;;;3.47;3.13;;;;;;;22.46;35.01;93065.47;6130053;28;109505;-60
2023/03/11 13:06:39;;;;;;;5.67;4.80;;;;;;;22.44;34.09;93061.63;6146846;28;109554;-59
2023/03/11 13:09:45;;;;;;;6.93;4.40;;;;;;;22.50;34.16;93074.28;6133035;28;108880;-60
2023/03/11 13:12:51;;;;;;;3.63;3.33;;;;;;;22.47;33.98;93076.91;6138242;28;109442;-59
2023/03/11 13:15:56;;;;;;;2.83;2.63;;;;;;;22.47;33.39;93083.00;6137204;28;110421;-61
2023/03/11 13:19:48;;;;;;;2.90;2.60;;;;;;;22.46;32.91;93091.34;6132058;28;109951;-60
2023/03/11 13:23:22;;;;;;;3.30;3.00;;;;;;;22.42;32.79;93097.41;6136680;28;108982;-62
2023/03/11 13:26:37;;;;;;;2.13;1.90;;;;;;;22.42;32.71;93113.38;6148111;28;110062;-60
2023/03/11 13:30:01;;;;;;;3.70;2.00;;;;;;;22.37;33.10;93115.59;6143332;28;109228;-59
2023/03/11 13:33:30;;;;;;;1.60;1.50;;;;;;;22.36;32.29;93117.47;6137402;28;109019;-60
2023/03/11 13:36:52;;;;;;;2.40;1.47;;;;;;;22.36;32.84;93120.16;6137808;28;108668;-60
2023/03/11 13:40:13;;;;;;;2.90;1.60;;;;;;;22.34;32.83;93148.25;6133931;28;109486;-60
2023/03/11 13:43:23;;;;;;;2.57;1.50;;;;;;;22.35;32.68;93168.47;6127654;28;109403;-60
2023/03/11 13:46:39;;;;;;;6.03;1.73;;;;;;;22.06;32.85;93170.59;6138225;28;109988;-63
2023/03/11 13:49:49;;;;;;;2.13;1.40;;;;;;;22.14;33.58;93176.03;6140625;28;110228;-63
2023/03/11 13:52:56;;;;;;;7.33;3.43;;;;;;;22.20;34.71;93190.63;6123608;28;110242;-63
2023/03/11 13:56:04;;;;;;;2.10;1.90;;;;;;;21.91;33.78;93191.94;6126697;28;110567;-63
2023/03/11 13:59:22;;;;;;;3.63;2.60;;;;;;;22.02;34.76;93207.03;6135690;28;110088;-63
2023/03/11 14:02:27;;;;;;;3.67;2.40;;;;;;;22.16;34.77;93221.75;6132982;28;110068;-63
2023/03/11 14:05:34;;;;;;;2.57;2.37;;;;;;;22.17;34.83;93229.38;6127533;28;110097;-63
2023/03/11 14:08:42;;;;;;;4.10;2.83;;;;;;;22.14;35.11;93216.75;6143968;28;109121;-63
2023/03/11 14:11:48;;;;;;;3.10;2.87;;;;;;;22.17;34.93;93204.63;6142207;28;111204;-62
2023/03/11 14:15:00;;;;;;;3.60;3.30;;;;;;;22.15;35.22;93206.88;6126768;28;109650;-62
2023/03/11 14:18:27;;;;;;;3.00;2.40;;;;;;;22.19;35.95;93211.19;6136793;28;110112;-63
2023/03/11 14:21:31;;;;;;;4.47;2.40;;;;;;;22.21;35.47;93213.50;6137169;28;109576;-63
2023/03/11 14:24:37;;;;;;;3.73;2.73;;;;;;;22.33;35.77;93208.00;6134656;28;110719;-62